Time;durP1;ratioP1;P1;durP2;ratioP2;P2;SDS_P1;SDS_P2;PMS_P1;PMS_P2;Temp;Humidity;BMP_temperature;BMP_pressure;BME280_temperature;BME280_humidity;BME280_pressure;Samples;Min_cycle;Max_cycle;Signal;HPM_P1;HPM_P2
2024/02/06 00:01:00;;;;;;;;;;;7.10;86.70;;;;;;5015742;28;86878;-60
2024/02/06 00:03:26;;;;;;;;;;;7.10;86.60;;;;;;5019259;28;86436;-61
2024/02/06 00:05:51;;;;;;;;;;;7.10;86.60;;;;;;5011190;28;87243;-61
2024/02/06 00:08:17;;;;;;;;;;;7.00;86.40;;;;;;5013878;28;87143;-61
2024/02/06 00:10:43;;;;;;;;;;;7.10;86.60;;;;;;5016695;28;88358;-61
2024/02/06 00:13:08;;;;;;;;;;;7.10;86.50;;;;;;5018668;28;86914;-61
2024/02/06 00:15:34;;;;;;;;;;;7.10;86.60;;;;;;5018756;28;87405;-60
2024/02/06 00:17:59;;;;;;;;;;;7.10;86.50;;;;;;5019659;28;86974;-61
2024/02/06 00:20:25;;;;;;;;;;;7.00;86.50;;;;;;5015551;28;86874;-60
2024/02/06 00:22:50;;;;;;;;;;;7.00;86.40;;;;;;5014672;28;87443;-61
2024/02/06 00:25:15;;;;;;;;;;;7.00;86.30;;;;;;5014778;28;86981;-61
2024/02/06 00:27:41;;;;;;;;;;;7.00;86.30;;;;;;5016299;28;86091;-61
2024/02/06 00:30:07;;;;;;;;;;;7.00;86.40;;;;;;5018280;28;87516;-61
2024/02/06 00:32:32;;;;;;;;;;;7.00;86.30;;;;;;5015599;28;87076;-61
2024/02/06 00:34:59;;;;;;;;;;;7.00;86.50;;;;;;5020795;28;88106;-61
2024/02/06 00:37:26;;;;;;;;;;;7.00;86.40;;;;;;5015324;28;87138;-61
2024/02/06 00:39:51;;;;;;;;;;;7.00;86.40;;;;;;5016482;28;88101;-60
2024/02/06 00:42:17;;;;;;;;;;;7.00;86.40;;;;;;5013409;28;87313;-61
2024/02/06 00:44:43;;;;;;;;;;;7.00;86.30;;;;;;5011784;28;87132;-60
2024/02/06 00:47:08;;;;;;;;;;;7.00;86.40;;;;;;5011878;28;86960;-60
2024/02/06 00:49:34;;;;;;;;;;;7.00;86.30;;;;;;5010830;28;87424;-59
2024/02/06 00:52:00;;;;;;;;;;;7.00;86.30;;;;;;5015426;28;86282;-60
2024/02/06 00:54:25;;;;;;;;;;;6.90;86.40;;;;;;5014744;28;87122;-61
2024/02/06 00:56:51;;;;;;;;;;;6.90;86.20;;;;;;5019229;28;87417;-60
2024/02/06 00:59:16;;;;;;;;;;;6.90;86.20;;;;;;5018735;28;88109;-60
2024/02/06 01:01:42;;;;;;;;;;;6.90;86.20;;;;;;5017951;28;87788;-61
2024/02/06 01:04:07;;;;;;;;;;;6.90;86.20;;;;;;5013741;28;87132;-60
2024/02/06 01:06:33;;;;;;;;;;;6.90;86.10;;;;;;5018201;28;87196;-61
2024/02/06 01:08:58;;;;;;;;;;;6.90;86.10;;;;;;5014642;28;87504;-61
2024/02/06 01:11:24;;;;;;;;;;;6.90;86.10;;;;;;5010512;28;87050;-61
2024/02/06 01:13:50;;;;;;;;;;;6.80;86.10;;;;;;5014546;28;86826;-61
2024/02/06 01:16:16;;;;;;;;;;;6.90;86.20;;;;;;5014495;28;86638;-61
2024/02/06 01:18:41;;;;;;;;;;;6.80;86.20;;;;;;5015211;28;87047;-61
2024/02/06 01:21:07;;;;;;;;;;;6.80;86.00;;;;;;5020226;28;87598;-60
2024/02/06 01:23:33;;;;;;;;;;;6.80;86.10;;;;;;5021570;28;87797;-61
2024/02/06 01:25:58;;;;;;;;;;;6.80;86.10;;;;;;5018159;28;87933;-61
2024/02/06 01:28:24;;;;;;;;;;;6.80;86.10;;;;;;5016259;28;87441;-61
2024/02/06 01:30:49;;;;;;;;;;;6.80;86.10;;;;;;5018194;28;87058;-61
2024/02/06 01:33:15;;;;;;;;;;;6.80;86.10;;;;;;5021213;28;88064;-60
2024/02/06 01:35:41;;;;;;;;;;;6.80;85.90;;;;;;5018738;28;86786;-60
2024/02/06 01:38:06;;;;;;;;;;;6.80;86.00;;;;;;5018018;28;87060;-61
2024/02/06 01:40:39;;;;;;;;;;;6.70;85.90;;;;;;5021258;28;86477;-61
2024/02/06 01:43:04;;;;;;;;;;;6.80;85.80;;;;;;5017904;28;86996;-61
2024/02/06 01:45:31;;;;;;;;;;;6.70;85.90;;;;;;5017063;28;86890;-61
2024/02/06 01:47:57;;;;;;;;;;;6.70;86.40;;;;;;5008514;28;88569;-61
2024/02/06 01:50:23;;;;;;;;;;;6.70;85.80;;;;;;5017939;28;87055;-61
2024/02/06 01:52:51;;;;;;;;;;;6.70;85.80;;;;;;5021241;28;87375;-61
2024/02/06 01:55:17;;;;;;;;;;;6.70;85.90;;;;;;5017777;28;87681;-60
2024/02/06 01:57:43;;;;;;;;;;;6.70;85.90;;;;;;5021279;28;87027;-61
2024/02/06 02:00:10;;;;;;;;;;;6.70;85.90;;;;;;5023286;28;86906;-61
2024/02/06 02:02:36;;;;;;;;;;;6.70;85.80;;;;;;5018374;28;86898;-61
2024/02/06 02:05:02;;;;;;;;;;;6.70;85.80;;;;;;5021924;28;86779;-61
2024/02/06 02:07:29;;;;;;;;;;;6.70;85.90;;;;;;5019758;28;88530;-61
2024/02/06 02:09:55;;;;;;;;;;;6.60;85.80;;;;;;5018506;28;87421;-61
2024/02/06 02:12:20;;;;;;;;;;;6.70;85.90;;;;;;5019602;28;87851;-61
2024/02/06 02:14:46;;;;;;;;;;;6.60;86.50;;;;;;5017798;28;87582;-61
2024/02/06 02:17:11;;;;;;;;;;;6.60;85.70;;;;;;5020233;28;87026;-61
2024/02/06 02:19:37;;;;;;;;;;;6.60;85.70;;;;;;5018468;28;86824;-61
2024/02/06 02:22:03;;;;;;;;;;;6.60;85.80;;;;;;5018934;28;87470;-61
2024/02/06 02:24:28;;;;;;;;;;;6.60;85.70;;;;;;5018303;28;87016;-61
2024/02/06 02:26:54;;;;;;;;;;;6.60;85.60;;;;;;5019625;28;87551;-60
2024/02/06 02:29:21;;;;;;;;;;;6.60;85.70;;;;;;5014909;28;86389;-61
2024/02/06 02:31:47;;;;;;;;;;;6.60;85.90;;;;;;5015175;28;86835;-61
2024/02/06 02:34:14;;;;;;;;;;;6.60;85.80;;;;;;5015392;28;87602;-60
2024/02/06 02:36:40;;;;;;;;;;;6.60;85.60;;;;;;5020211;28;87950;-61
2024/02/06 02:39:06;;;;;;;;;;;6.50;85.60;;;;;;5016840;28;87751;-61
2024/02/06 02:41:32;;;;;;;;;;;6.50;85.70;;;;;;5018484;28;88618;-61
2024/02/06 02:43:57;;;;;;;;;;;6.60;85.60;;;;;;5021182;28;87010;-61
2024/02/06 02:46:23;;;;;;;;;;;6.50;85.80;;;;;;5018934;28;88567;-61
2024/02/06 02:48:48;;;;;;;;;;;6.50;85.50;;;;;;5017615;28;87009;-61
2024/02/06 02:51:14;;;;;;;;;;;6.50;85.60;;;;;;5019289;28;88038;-60
2024/02/06 02:53:39;;;;;;;;;;;6.50;85.70;;;;;;5018249;28;86558;-61
2024/02/06 02:56:05;;;;;;;;;;;6.50;85.60;;;;;;5015161;28;87085;-61
2024/02/06 02:58:31;;;;;;;;;;;6.50;85.60;;;;;;5013394;28;88121;-61
2024/02/06 03:00:56;;;;;;;;;;;6.50;85.50;;;;;;5016660;28;89385;-61
2024/02/06 03:03:22;;;;;;;;;;;6.40;85.50;;;;;;5013476;28;86953;-61
2024/02/06 03:05:47;;;;;;;;;;;6.50;85.60;;;;;;5021952;28;86889;-61
2024/02/06 03:08:13;;;;;;;;;;;6.50;85.60;;;;;;5020455;28;87488;-60
2024/02/06 03:10:38;;;;;;;;;;;6.40;85.60;;;;;;5015447;28;86998;-61
2024/02/06 03:13:04;;;;;;;;;;;6.40;85.50;;;;;;5016206;28;87668;-61
2024/02/06 03:15:30;;;;;;;;;;;6.40;85.40;;;;;;5017461;28;87150;-60
2024/02/06 03:17:56;;;;;;;;;;;6.40;85.50;;;;;;5019477;28;86270;-61
2024/02/06 03:20:21;;;;;;;;;;;6.40;85.50;;;;;;5017289;28;87405;-61
2024/02/06 03:22:47;;;;;;;;;;;6.40;85.40;;;;;;5019159;28;86994;-61
2024/02/06 03:25:13;;;;;;;;;;;6.40;85.50;;;;;;5016922;28;87743;-61
2024/02/06 03:27:41;;;;;;;;;;;6.40;85.40;;;;;;5021338;28;88417;-61
2024/02/06 03:30:07;;;;;;;;;;;6.40;85.50;;;;;;5010389;28;87832;-61
2024/02/06 03:32:33;;;;;;;;;;;6.30;85.50;;;;;;5019768;28;88489;-61
2024/02/06 03:34:59;;;;;;;;;;;6.30;85.40;;;;;;5012977;28;87094;-61
2024/02/06 03:37:24;;;;;;;;;;;6.30;85.40;;;;;;5015066;28;86814;-61
2024/02/06 03:39:50;;;;;;;;;;;6.30;85.30;;;;;;5016256;28;88578;-60
2024/02/06 03:42:16;;;;;;;;;;;6.30;85.40;;;;;;5017259;28;86375;-60
2024/02/06 03:44:41;;;;;;;;;;;6.30;85.30;;;;;;5018155;28;87081;-61
2024/02/06 03:47:07;;;;;;;;;;;6.30;85.30;;;;;;5012871;28;87653;-61
2024/02/06 03:49:32;;;;;;;;;;;6.30;85.40;;;;;;5017609;28;88015;-61
2024/02/06 03:51:58;;;;;;;;;;;6.30;85.30;;;;;;5015646;28;87554;-61
2024/02/06 03:54:23;;;;;;;;;;;6.30;85.30;;;;;;5018185;28;86994;-61
2024/02/06 03:56:49;;;;;;;;;;;6.30;85.30;;;;;;5017094;28;86817;-60
2024/02/06 03:59:14;;;;;;;;;;;6.20;85.30;;;;;;5018138;28;87466;-61
2024/02/06 04:01:40;;;;;;;;;;;6.20;85.30;;;;;;5016656;28;87128;-61
2024/02/06 04:04:06;;;;;;;;;;;6.20;85.40;;;;;;5018419;28;86897;-60
2024/02/06 04:06:31;;;;;;;;;;;6.20;85.30;;;;;;5016621;28;87696;-61
2024/02/06 04:08:57;;;;;;;;;;;6.20;85.40;;;;;;5022415;28;86993;-61
2024/02/06 04:11:23;;;;;;;;;;;6.20;85.30;;;;;;5018128;28;86699;-61
2024/02/06 04:13:48;;;;;;;;;;;6.20;85.30;;;;;;5015974;28;88108;-61
2024/02/06 04:16:14;;;;;;;;;;;6.20;85.30;;;;;;5014516;28;88840;-61
2024/02/06 04:18:39;;;;;;;;;;;6.20;85.30;;;;;;5016056;28;87527;-60
2024/02/06 04:21:05;;;;;;;;;;;6.10;85.20;;;;;;5017557;28;87654;-61
2024/02/06 04:23:31;;;;;;;;;;;6.10;85.20;;;;;;5017998;28;89428;-61
2024/02/06 04:25:56;;;;;;;;;;;6.20;85.20;;;;;;5017585;28;88459;-61
2024/02/06 04:28:22;;;;;;;;;;;6.20;85.30;;;;;;5016098;28;87056;-60
2024/02/06 04:30:47;;;;;;;;;;;6.10;85.20;;;;;;5018037;28;86553;-61
2024/02/06 04:33:13;;;;;;;;;;;6.10;85.10;;;;;;5012797;28;87034;-61
2024/02/06 04:35:39;;;;;;;;;;;6.10;85.20;;;;;;5018231;28;86904;-61
2024/02/06 04:38:05;;;;;;;;;;;6.10;85.20;;;;;;5011085;28;89400;-61
2024/02/06 04:40:31;;;;;;;;;;;6.10;85.30;;;;;;5016434;28;87036;-61
2024/02/06 04:42:56;;;;;;;;;;;6.10;85.20;;;;;;5019151;28;88060;-61
2024/02/06 04:45:22;;;;;;;;;;;6.10;85.10;;;;;;5015680;28;87466;-61
2024/02/06 04:47:47;;;;;;;;;;;6.10;85.20;;;;;;5016572;28;86947;-61
2024/02/06 04:50:13;;;;;;;;;;;6.00;85.10;;;;;;5018131;28;86950;-61
2024/02/06 04:52:38;;;;;;;;;;;6.10;85.20;;;;;;5013749;28;87579;-61
2024/02/06 04:55:04;;;;;;;;;;;6.00;85.10;;;;;;5014474;28;86617;-61
2024/02/06 04:57:30;;;;;;;;;;;6.00;85.10;;;;;;5017277;28;88446;-61
2024/02/06 04:59:56;;;;;;;;;;;6.00;85.10;;;;;;5018639;28;86959;-61
2024/02/06 05:02:22;;;;;;;;;;;6.00;85.10;;;;;;5014887;28;87984;-61
2024/02/06 05:04:48;;;;;;;;;;;6.00;85.10;;;;;;5017506;28;87028;-61
2024/02/06 05:07:14;;;;;;;;;;;6.00;85.10;;;;;;5019011;28;86958;-61
2024/02/06 05:09:39;;;;;;;;;;;6.00;85.10;;;;;;5014845;28;86950;-61
2024/02/06 05:12:06;;;;;;;;;;;5.90;85.00;;;;;;5015134;28;87820;-61
2024/02/06 05:14:32;;;;;;;;;;;5.90;85.10;;;;;;5020239;28;87070;-61
2024/02/06 05:16:58;;;;;;;;;;;5.90;85.10;;;;;;5015071;28;88506;-61
2024/02/06 05:19:23;;;;;;;;;;;5.90;85.10;;;;;;5017835;28;86251;-61
2024/02/06 05:21:49;;;;;;;;;;;5.90;85.20;;;;;;5015657;28;87419;-61
2024/02/06 05:24:15;;;;;;;;;;;5.90;85.10;;;;;;5018202;28;87549;-61
2024/02/06 05:26:40;;;;;;;;;;;5.90;85.10;;;;;;5013612;28;88006;-61
2024/02/06 05:29:06;;;;;;;;;;;5.90;85.10;;;;;;5008223;28;87624;-61
2024/02/06 05:31:32;;;;;;;;;;;5.90;85.10;;;;;;5013578;28;87393;-61
2024/02/06 05:33:58;;;;;;;;;;;5.80;85.10;;;;;;5009244;28;87011;-59
2024/02/06 05:36:24;;;;;;;;;;;5.80;85.20;;;;;;5013438;28;87909;-60
2024/02/06 05:38:49;;;;;;;;;;;5.80;85.10;;;;;;5013953;28;86980;-61
2024/02/06 05:41:15;;;;;;;;;;;5.80;85.10;;;;;;5016836;28;86943;-60
2024/02/06 05:43:40;;;;;;;;;;;5.80;85.10;;;;;;5017698;28;86693;-61
2024/02/06 05:46:06;;;;;;;;;;;5.80;85.10;;;;;;5015097;28;87014;-61
2024/02/06 05:48:31;;;;;;;;;;;5.80;85.10;;;;;;5017395;28;87191;-61
2024/02/06 05:50:59;;;;;;;;;;;5.80;85.10;;;;;;5009499;28;89357;-61
2024/02/06 05:53:25;;;;;;;;;;;5.80;85.10;;;;;;5015231;28;87359;-60
2024/02/06 05:55:50;;;;;;;;;;;5.80;85.10;;;;;;5016990;28;86861;-61
2024/02/06 05:58:16;;;;;;;;;;;5.70;85.00;;;;;;5015026;28;88536;-61
2024/02/06 06:00:42;;;;;;;;;;;5.70;85.10;;;;;;5016985;28;86983;-61
2024/02/06 06:03:07;;;;;;;;;;;5.70;85.10;;;;;;5014221;28;86961;-59
2024/02/06 06:05:33;;;;;;;;;;;5.70;85.00;;;;;;5013433;28;86962;-61
2024/02/06 06:07:59;;;;;;;;;;;5.70;85.00;;;;;;5020813;28;87774;-61
2024/02/06 06:10:24;;;;;;;;;;;5.70;85.00;;;;;;5015003;28;87003;-60
2024/02/06 06:12:50;;;;;;;;;;;5.70;85.00;;;;;;5016629;28;87003;-61
2024/02/06 06:15:16;;;;;;;;;;;5.70;84.90;;;;;;5015515;28;88422;-60
2024/02/06 06:17:42;;;;;;;;;;;5.70;85.00;;;;;;5019877;28;87322;-61
2024/02/06 06:20:08;;;;;;;;;;;5.70;84.90;;;;;;5015063;28;86828;-61
2024/02/06 06:22:33;;;;;;;;;;;5.70;84.90;;;;;;5019529;28;88383;-60
2024/02/06 06:24:59;;;;;;;;;;;5.70;85.00;;;;;;5018440;28;86944;-61
2024/02/06 06:27:24;;;;;;;;;;;5.70;84.90;;;;;;5018092;28;87002;-61
2024/02/06 06:29:50;;;;;;;;;;;5.60;84.90;;;;;;5017754;28;88560;-61
2024/02/06 06:32:16;;;;;;;;;;;5.70;84.80;;;;;;5016986;28;86349;-60
2024/02/06 06:34:41;;;;;;;;;;;5.60;84.70;;;;;;5014514;28;87144;-61
2024/02/06 06:37:07;;;;;;;;;;;5.70;84.90;;;;;;5016307;28;87633;-60
2024/02/06 06:39:33;;;;;;;;;;;5.60;84.70;;;;;;5020409;28;87945;-61
2024/02/06 06:41:59;;;;;;;;;;;5.70;84.80;;;;;;5017345;28;87481;-60
2024/02/06 06:44:25;;;;;;;;;;;5.60;84.80;;;;;;5015856;28;86997;-61
2024/02/06 06:46:51;;;;;;;;;;;5.60;84.80;;;;;;5017055;28;87025;-61
2024/02/06 06:49:16;;;;;;;;;;;5.60;84.70;;;;;;5017728;28;87642;-61
2024/02/06 06:51:45;;;;;;;;;;;5.60;84.70;;;;;;5017667;28;86970;-60
2024/02/06 06:54:10;;;;;;;;;;;5.60;84.60;;;;;;5015412;28;86910;-60
2024/02/06 06:56:36;;;;;;;;;;;5.60;84.60;;;;;;5014464;28;86739;-60
2024/02/06 06:59:01;;;;;;;;;;;5.60;84.50;;;;;;5015399;28;87102;-61
2024/02/06 07:01:27;;;;;;;;;;;5.60;84.50;;;;;;5022085;28;87567;-61
2024/02/06 07:03:52;;;;;;;;;;;5.60;84.60;;;;;;5020037;28;87826;-61
2024/02/06 07:06:18;;;;;;;;;;;5.60;84.60;;;;;;5012620;28;88737;-60
2024/02/06 07:08:44;;;;;;;;;;;5.60;84.50;;;;;;5012814;28;87313;-61
2024/02/06 07:11:10;;;;;;;;;;;5.60;84.60;;;;;;5017932;28;87040;-61
2024/02/06 07:13:35;;;;;;;;;;;5.60;84.60;;;;;;5017718;28;87881;-61
2024/02/06 07:16:01;;;;;;;;;;;5.60;84.50;;;;;;5016135;28;87491;-60
2024/02/06 07:18:26;;;;;;;;;;;5.60;84.60;;;;;;5015867;28;87110;-60
2024/02/06 07:20:52;;;;;;;;;;;5.60;84.60;;;;;;5009762;28;86526;-60
2024/02/06 07:23:18;;;;;;;;;;;5.60;84.60;;;;;;5015370;28;87345;-61
2024/02/06 07:25:43;;;;;;;;;;;5.60;84.70;;;;;;5015666;28;87979;-61
2024/02/06 07:28:09;;;;;;;;;;;5.60;84.70;;;;;;5013948;28;89223;-60
2024/02/06 07:30:34;;;;;;;;;;;5.60;84.60;;;;;;5014750;28;86907;-60
2024/02/06 07:33:00;;;;;;;;;;;5.60;84.80;;;;;;5017093;28;86895;-60
2024/02/06 07:35:25;;;;;;;;;;;5.60;84.70;;;;;;5015336;28;87491;-60
2024/02/06 07:37:51;;;;;;;;;;;5.60;84.70;;;;;;5018862;28;87032;-60
2024/02/06 07:40:17;;;;;;;;;;;5.60;85.30;;;;;;5016503;28;86983;-61
2024/02/06 07:42:44;;;;;;;;;;;5.60;84.70;;;;;;5018758;28;87349;-60
2024/02/06 07:45:10;;;;;;;;;;;5.60;84.70;;;;;;5020406;28;86269;-60
2024/02/06 07:47:35;;;;;;;;;;;5.50;84.70;;;;;;5018486;28;87490;-60
2024/02/06 07:50:02;;;;;;;;;;;5.60;84.70;;;;;;5017205;28;87676;-59
2024/02/06 07:52:28;;;;;;;;;;;5.50;84.70;;;;;;5019283;28;88008;-61
2024/02/06 07:54:53;;;;;;;;;;;5.60;84.80;;;;;;5013872;28;90160;-61
2024/02/06 07:57:20;;;;;;;;;;;5.60;84.80;;;;;;5013702;28;87052;-60
2024/02/06 07:59:46;;;;;;;;;;;5.50;84.80;;;;;;5017777;28;87481;-61
2024/02/06 08:02:12;;;;;;;;;;;5.60;84.90;;;;;;5016911;28;87922;-60
2024/02/06 08:04:37;;;;;;;;;;;5.60;84.80;;;;;;5018069;28;86980;-60
2024/02/06 08:07:03;;;;;;;;;;;5.60;85.00;;;;;;5019646;28;86863;-59
2024/02/06 08:09:29;;;;;;;;;;;5.60;84.90;;;;;;5011397;28;86236;-61
2024/02/06 08:11:54;;;;;;;;;;;5.60;84.90;;;;;;5015768;28;86947;-61
2024/02/06 08:14:20;;;;;;;;;;;5.50;84.80;;;;;;5016622;28;87503;-61
2024/02/06 08:16:46;;;;;;;;;;;5.60;84.90;;;;;;5017465;28;88125;-61
2024/02/06 08:19:13;;;;;;;;;;;5.50;84.80;;;;;;5014272;28;88681;-60
2024/02/06 08:21:39;;;;;;;;;;;5.50;84.80;;;;;;5016552;28;87420;-61
2024/02/06 08:24:05;;;;;;;;;;;5.50;84.80;;;;;;5018992;28;86971;-60
2024/02/06 08:26:31;;;;;;;;;;;5.50;84.90;;;;;;5019285;28;87075;-61
2024/02/06 08:28:57;;;;;;;;;;;5.60;84.90;;;;;;5015259;28;87645;-61
2024/02/06 08:31:22;;;;;;;;;;;5.50;84.90;;;;;;5016981;28;86843;-60
2024/02/06 08:33:49;;;;;;;;;;;5.50;84.90;;;;;;5017498;28;86908;-61
2024/02/06 08:36:15;;;;;;;;;;;5.60;85.10;;;;;;5016773;28;86903;-61
2024/02/06 08:38:41;;;;;;;;;;;5.60;85.00;;;;;;5017285;28;86866;-61
2024/02/06 08:41:07;;;;;;;;;;;5.60;85.00;;;;;;5017804;28;88406;-61
2024/02/06 08:43:32;;;;;;;;;;;5.60;85.10;;;;;;5016788;28;86910;-61
2024/02/06 08:45:59;;;;;;;;;;;5.60;85.10;;;;;;5014414;28;87118;-61
2024/02/06 08:48:27;;;;;;;;;;;5.60;85.10;;;;;;5019190;28;88492;-61
2024/02/06 08:50:53;;;;;;;;;;;5.60;85.10;;;;;;5016984;28;88336;-61
2024/02/06 08:53:18;;;;;;;;;;;5.60;85.10;;;;;;5015886;28;88947;-60
2024/02/06 08:55:44;;;;;;;;;;;5.60;85.10;;;;;;5013504;28;86989;-60
2024/02/06 08:58:10;;;;;;;;;;;5.60;85.10;;;;;;5013617;28;86703;-60
2024/02/06 09:00:36;;;;;;;;;;;5.60;85.00;;;;;;5012048;28;88530;-59
2024/02/06 09:03:02;;;;;;;;;;;5.60;84.90;;;;;;5017251;28;86893;-61
2024/02/06 09:05:28;;;;;;;;;;;5.60;85.00;;;;;;5015611;28;87969;-61
2024/02/06 09:07:54;;;;;;;;;;;5.50;84.90;;;;;;5014903;28;88553;-61
2024/02/06 09:10:20;;;;;;;;;;;5.50;85.00;;;;;;5017685;28;86985;-61
2024/02/06 09:12:45;;;;;;;;;;;5.60;85.00;;;;;;5016044;28;87109;-60
2024/02/06 09:15:11;;;;;;;;;;;5.60;85.00;;;;;;5012153;28;87097;-61
2024/02/06 09:17:37;;;;;;;;;;;5.60;85.00;;;;;;5018724;28;86877;-60
2024/02/06 09:20:02;;;;;;;;;;;5.60;85.00;;;;;;5016225;28;88493;-61
2024/02/06 09:22:28;;;;;;;;;;;5.60;85.00;;;;;;5016764;28;86238;-61
2024/02/06 09:24:53;;;;;;;;;;;5.60;85.00;;;;;;5019299;28;86857;-60
2024/02/06 09:27:19;;;;;;;;;;;5.60;85.10;;;;;;5013466;28;87483;-61
2024/02/06 09:29:45;;;;;;;;;;;5.60;85.10;;;;;;5013864;28;87913;-61
2024/02/06 09:32:10;;;;;;;;;;;5.60;85.10;;;;;;5017414;28;87695;-61
2024/02/06 09:34:36;;;;;;;;;;;5.60;85.10;;;;;;5016657;28;86877;-61
2024/02/06 09:37:01;;;;;;;;;;;5.60;85.20;;;;;;5016150;28;87049;-61
2024/02/06 09:39:27;;;;;;;;;;;5.60;85.20;;;;;;5017306;28;87423;-61
2024/02/06 09:41:53;;;;;;;;;;;5.60;85.10;;;;;;5019253;28;86857;-61
2024/02/06 09:44:18;;;;;;;;;;;5.60;85.20;;;;;;5020574;28;87055;-61
2024/02/06 09:46:45;;;;;;;;;;;5.60;85.10;;;;;;5017930;28;86537;-61
2024/02/06 09:49:11;;;;;;;;;;;5.60;85.10;;;;;;5019620;28;86731;-57
2024/02/06 09:51:41;;;;;;;;;;;5.60;85.00;;;;;;5017575;28;88049;-61
2024/02/06 09:54:07;;;;;;;;;;;5.60;85.10;;;;;;5019603;28;89428;-61
2024/02/06 09:56:34;;;;;;;;;;;5.70;85.20;;;;;;5020632;28;87738;-60
2024/02/06 09:59:05;;;;;;;;;;;5.70;85.20;;;;;;5017799;28;87247;-61
2024/02/06 10:01:31;;;;;;;;;;;5.70;85.10;;;;;;5017512;28;86961;-61
2024/02/06 10:03:57;;;;;;;;;;;5.70;85.40;;;;;;5021469;28;86906;-61
2024/02/06 10:06:23;;;;;;;;;;;5.70;85.40;;;;;;5017351;28;86881;-61
2024/02/06 10:08:51;;;;;;;;;;;5.70;85.60;;;;;;5021283;28;86917;-61
2024/02/06 10:11:18;;;;;;;;;;;5.70;85.70;;;;;;5018014;28;86826;-60
2024/02/06 10:13:45;;;;;;;;;;;5.70;85.50;;;;;;5020586;28;88420;-61
2024/02/06 10:16:10;;;;;;;;;;;5.70;85.60;;;;;;5020686;28;86966;-60
2024/02/06 10:18:48;;;;;;;;;;;5.70;85.80;;;;;;5016128;28;88419;-61
2024/02/06 10:21:15;;;;;;;;;;;5.80;85.90;;;;;;5017790;28;87096;-61
2024/02/06 10:23:41;;;;;;;;;;;5.80;85.90;;;;;;5019882;28;87064;-60
2024/02/06 10:26:06;;;;;;;;;;;5.80;86.20;;;;;;5012343;28;87465;-61
2024/02/06 10:28:32;;;;;;;;;;;5.80;86.30;;;;;;5015022;28;87092;-61
2024/02/06 10:30:58;;;;;;;;;;;5.80;86.50;;;;;;5019050;28;86994;-61
2024/02/06 10:33:23;;;;;;;;;;;5.80;86.50;;;;;;5018218;28;87507;-61
2024/02/06 10:35:49;;;;;;;;;;;5.80;86.70;;;;;;5022294;28;86179;-61
2024/02/06 10:38:15;;;;;;;;;;;5.80;86.80;;;;;;5018358;28;88604;-60
2024/02/06 10:40:42;;;;;;;;;;;5.90;87.10;;;;;;5018176;28;86994;-59
2024/02/06 10:43:08;;;;;;;;;;;5.90;87.10;;;;;;5018785;28;87927;-61
2024/02/06 10:45:34;;;;;;;;;;;5.90;87.20;;;;;;5015629;28;88569;-61
2024/02/06 10:48:00;;;;;;;;;;;5.90;87.30;;;;;;5018104;28;86918;-61
2024/02/06 10:50:29;;;;;;;;;;;5.90;87.20;;;;;;5018708;28;86895;-60
2024/02/06 10:52:55;;;;;;;;;;;5.90;87.30;;;;;;5016824;28;87650;-61
2024/02/06 10:55:23;;;;;;;;;;;5.90;87.30;;;;;;5012776;28;87114;-61
2024/02/06 10:57:55;;;;;;;;;;;6.00;87.50;;;;;;5019087;28;87880;-61
2024/02/06 11:00:22;;;;;;;;;;;6.00;87.50;;;;;;5016716;28;86122;-60
2024/02/06 11:02:51;;;;;;;;;;;6.00;87.60;;;;;;5016511;28;86985;-60
2024/02/06 11:05:17;;;;;;;;;;;6.00;87.90;;;;;;5016739;28;88551;-60
2024/02/06 11:08:03;;;;;;;;;;;6.00;87.60;;;;;;5019344;28;88496;-60
2024/02/06 11:10:33;;;;;;;;;;;6.00;87.70;;;;;;5011735;28;88951;-60
2024/02/06 11:13:02;;;;;;;;;;;6.10;87.70;;;;;;5016091;28;88811;-60
2024/02/06 11:15:27;;;;;;;;;;;6.10;87.70;;;;;;5020467;28;87105;-60
2024/02/06 11:17:53;;;;;;;;;;;6.10;87.80;;;;;;5019859;28;86965;-60
2024/02/06 11:20:21;;;;;;;;;;;6.10;87.80;;;;;;5019498;28;86803;-60
2024/02/06 11:22:47;;;;;;;;;;;6.10;87.80;;;;;;5018843;28;86755;-60
2024/02/06 11:25:16;;;;;;;;;;;6.10;87.90;;;;;;5016385;28;87756;-60
2024/02/06 11:27:44;;;;;;;;;;;6.10;87.80;;;;;;5012594;28;87020;-60
2024/02/06 11:30:10;;;;;;;;;;;6.10;87.90;;;;;;5016121;28;88076;-60
2024/02/06 11:32:36;;;;;;;;;;;6.20;88.00;;;;;;5014646;28;89962;-60
2024/02/06 11:35:02;;;;;;;;;;;6.20;88.10;;;;;;5016292;28;87032;-60
2024/02/06 11:37:28;;;;;;;;;;;6.20;88.10;;;;;;5017459;28;87663;-60
2024/02/06 11:40:06;;;;;;;;;;;6.20;88.00;;;;;;5014646;28;87463;-60
2024/02/06 11:42:35;;;;;;;;;;;6.30;88.10;;;;;;5017473;28;86858;-60
2024/02/06 11:45:05;;;;;;;;;;;6.20;88.10;;;;;;5019398;28;88489;-60
2024/02/06 11:47:30;;;;;;;;;;;6.30;88.20;;;;;;5015964;28;86966;-60
2024/02/06 11:50:12;;;;;;;;;;;6.30;88.20;;;;;;5011210;28;86289;-60
2024/02/06 11:52:38;;;;;;;;;;;6.30;88.20;;;;;;5017893;28;88320;-60
2024/02/06 11:55:04;;;;;;;;;;;6.30;88.30;;;;;;5014981;28;87154;-60
2024/02/06 11:57:30;;;;;;;;;;;6.40;88.40;;;;;;5015786;28;87902;-60
2024/02/06 11:59:57;;;;;;;;;;;6.40;88.20;;;;;;5014621;28;87633;-60
2024/02/06 12:02:22;;;;;;;;;;;6.40;88.30;;;;;;5016336;28;87039;-60
2024/02/06 12:04:48;;;;;;;;;;;6.40;88.30;;;;;;5018595;28;86828;-60
2024/02/06 12:07:14;;;;;;;;;;;6.40;88.30;;;;;;5015717;28;87063;-60
2024/02/06 12:09:40;;;;;;;;;;;6.40;88.30;;;;;;5016621;28;87933;-60
2024/02/06 12:12:10;;;;;;;;;;;6.40;88.20;;;;;;5014587;28;86919;-60
2024/02/06 12:14:35;;;;;;;;;;;6.50;88.30;;;;;;5011942;28;86369;-60
2024/02/06 12:17:01;;;;;;;;;;;6.50;88.30;;;;;;5018639;28;87088;-60
2024/02/06 12:19:27;;;;;;;;;;;6.50;88.20;;;;;;5013034;28;87686;-60
2024/02/06 12:22:03;;;;;;;;;;;6.50;88.30;;;;;;5018163;28;87972;-60
2024/02/06 12:24:30;;;;;;;;;;;6.50;88.40;;;;;;5017592;28;88181;-60
2024/02/06 12:27:05;;;;;;;;;;;6.60;88.40;;;;;;5017920;28;86926;-60
2024/02/06 12:29:38;;;;;;;;;;;6.50;88.30;;;;;;5017495;28;86912;-60
2024/02/06 12:32:04;;;;;;;;;;;6.60;88.60;;;;;;5015507;28;87596;-60
2024/02/06 12:34:34;;;;;;;;;;;6.60;88.50;;;;;;5017688;28;87040;-59
2024/02/06 12:37:00;;;;;;;;;;;6.60;88.60;;;;;;5014723;28;87957;-60
2024/02/06 12:39:27;;;;;;;;;;;6.60;88.50;;;;;;5014811;28;86830;-60
2024/02/06 12:42:06;;;;;;;;;;;6.60;88.50;;;;;;5010621;28;88423;-59
2024/02/06 12:44:32;;;;;;;;;;;6.60;88.60;;;;;;5012040;28;87924;-60
2024/02/06 12:46:59;;;;;;;;;;;6.70;88.60;;;;;;5018826;28;88256;-60
2024/02/06 12:49:25;;;;;;;;;;;6.70;88.50;;;;;;5016841;28;87841;-60
2024/02/06 12:51:51;;;;;;;;;;;6.70;88.50;;;;;;5016486;28;87807;-59
2024/02/06 12:54:17;;;;;;;;;;;6.80;88.50;;;;;;5011317;28;86969;-59
2024/02/06 12:56:42;;;;;;;;;;;6.70;88.50;;;;;;5011377;28;87032;-60
2024/02/06 12:59:08;;;;;;;;;;;6.80;88.50;;;;;;5014882;28;87488;-60
2024/02/06 13:01:34;;;;;;;;;;;6.80;88.60;;;;;;5009222;28;86935;-60
2024/02/06 13:03:59;;;;;;;;;;;6.80;88.70;;;;;;5011907;28;88108;-60
2024/02/06 13:06:35;;;;;;;;;;;6.90;88.80;;;;;;5016035;28;88450;-59
2024/02/06 13:09:01;;;;;;;;;;;6.80;88.70;;;;;;5020763;28;86985;-60
2024/02/06 13:11:26;;;;;;;;;;;6.90;88.80;;;;;;5017634;28;88136;-60
2024/02/06 13:13:55;;;;;;;;;;;6.90;88.50;;;;;;5014444;28;87083;-59
2024/02/06 13:16:21;;;;;;;;;;;6.90;88.50;;;;;;5016287;28;86928;-59
2024/02/06 13:18:58;;;;;;;;;;;6.90;88.40;;;;;;5014369;28;87471;-60
2024/02/06 13:21:24;;;;;;;;;;;7.00;88.50;;;;;;5015229;28;86964;-60
2024/02/06 13:23:50;;;;;;;;;;;7.00;88.60;;;;;;5010649;28;87900;-60
2024/02/06 13:26:16;;;;;;;;;;;7.00;88.50;;;;;;5013638;28;87652;-60
2024/02/06 13:28:45;;;;;;;;;;;7.00;88.40;;;;;;5011367;28;86433;-60
2024/02/06 13:31:11;;;;;;;;;;;7.10;87.90;;;;;;5019030;28;86936;-60
2024/02/06 13:33:36;;;;;;;;;;;7.10;88.10;;;;;;5016463;28;86985;-60
2024/02/06 13:36:02;;;;;;;;;;;7.10;88.30;;;;;;5013751;28;87842;-60
2024/02/06 13:38:28;;;;;;;;;;;7.10;88.00;;;;;;5014193;28;87475;-60
2024/02/06 13:40:53;;;;;;;;;;;7.10;88.40;;;;;;5010705;28;87232;-60
2024/02/06 13:43:19;;;;;;;;;;;7.20;88.50;;;;;;5016268;28;87855;-60
2024/02/06 13:45:45;;;;;;;;;;;7.20;88.50;;;;;;5015633;28;88438;-60
2024/02/06 13:48:11;;;;;;;;;;;7.20;88.60;;;;;;5014074;28;87434;-60
2024/02/06 13:50:37;;;;;;;;;;;7.20;88.50;;;;;;5016542;28;87024;-60
2024/02/06 13:53:02;;;;;;;;;;;7.20;88.40;;;;;;5019135;28;87128;-60
2024/02/06 13:55:30;;;;;;;;;;;7.30;88.30;;;;;;5016231;28;86810;-60
2024/02/06 13:57:57;;;;;;;;;;;7.30;88.40;;;;;;5016007;28;87437;-59
2024/02/06 14:00:24;;;;;;;;;;;7.30;88.20;;;;;;5015317;28;87857;-60
2024/02/06 14:02:50;;;;;;;;;;;7.40;88.30;;;;;;5016451;28;88810;-60
2024/02/06 14:05:15;;;;;;;;;;;7.40;88.50;;;;;;5017529;28;88534;-60
2024/02/06 14:07:42;;;;;;;;;;;7.40;88.50;;;;;;5015658;28;87131;-60
2024/02/06 14:10:08;;;;;;;;;;;7.40;88.50;;;;;;5016439;28;88061;-60
2024/02/06 14:12:33;;;;;;;;;;;7.40;88.50;;;;;;5017624;28;87420;-60
2024/02/06 14:14:59;;;;;;;;;;;7.50;88.30;;;;;;5018114;28;87029;-60
2024/02/06 14:17:24;;;;;;;;;;;7.50;88.50;;;;;;5016596;28;86884;-60
2024/02/06 14:19:50;;;;;;;;;;;7.50;88.60;;;;;;5017988;28;86888;-60
2024/02/06 14:22:16;;;;;;;;;;;7.50;88.20;;;;;;5017883;28;86982;-60
2024/02/06 14:24:42;;;;;;;;;;;7.60;88.40;;;;;;5014256;28;87926;-60